createdAt,value
2023-02-22T00:00:43.211Z,99.77
2023-02-22T00:03:50.304Z,100.00
2023-02-22T00:06:53.996Z,100.00
2023-02-22T00:09:57.312Z,100.00
2023-02-22T00:13:00.016Z,100.00
2023-02-22T00:16:02.990Z,100.00
2023-02-22T00:19:06.248Z,100.00
2023-02-22T00:22:09.002Z,100.00
2023-02-22T00:25:11.724Z,100.00
2023-02-22T00:28:15.422Z,100.00
2023-02-22T00:31:19.974Z,100.00
2023-02-22T00:34:24.403Z,100.00
2023-02-22T00:37:27.243Z,100.00
2023-02-22T00:40:32.284Z,100.00
2023-02-22T00:43:35.529Z,100.00
2023-02-22T00:46:38.248Z,100.00
2023-02-22T00:49:40.931Z,100.00
2023-02-22T00:52:44.504Z,100.00
2023-02-22T00:55:47.175Z,100.00
2023-02-22T00:58:49.956Z,100.00
2023-02-22T01:01:53.782Z,100.00
2023-02-22T01:04:56.719Z,100.00
2023-02-22T01:08:01.140Z,100.00
2023-02-22T01:11:07.129Z,100.00
2023-02-22T01:14:10.003Z,100.00
2023-02-22T01:17:15.952Z,100.00
2023-02-22T01:20:20.911Z,100.00
2023-02-22T01:23:23.701Z,100.00
2023-02-22T01:26:26.550Z,100.00
2023-02-22T01:29:29.288Z,100.00
2023-02-22T01:32:33.883Z,100.00
2023-02-22T01:35:41.016Z,100.00
2023-02-22T01:38:45.257Z,100.00
2023-02-22T01:41:48.001Z,100.00
2023-02-22T01:45:28.443Z,100.00
2023-02-22T01:48:39.166Z,100.00
2023-02-22T01:51:45.693Z,100.00
2023-02-22T01:54:53.293Z,100.00
2023-02-22T01:57:56.226Z,100.00
2023-02-22T02:00:59.363Z,100.00
2023-02-22T02:04:05.551Z,100.00
2023-02-22T02:07:09.724Z,100.00
2023-02-22T02:10:15.657Z,100.00
2023-02-22T02:13:20.381Z,100.00
2023-02-22T02:16:35.904Z,100.00
2023-02-22T02:19:57.131Z,100.00
2023-02-22T02:23:24.890Z,100.00
2023-02-22T02:26:46.430Z,100.00
2023-02-22T02:30:17.042Z,100.00
2023-02-22T02:33:27.081Z,100.00
2023-02-22T02:36:46.640Z,100.00
2023-02-22T02:40:27.752Z,100.00
2023-02-22T02:43:48.777Z,100.00
2023-02-22T02:46:52.225Z,100.00
2023-02-22T02:50:01.006Z,100.00
2023-02-22T02:53:06.488Z,100.00
2023-02-22T02:56:09.186Z,100.00
2023-02-22T02:59:27.695Z,100.00
2023-02-22T03:02:42.189Z,100.00
2023-02-22T03:06:06.175Z,100.00
2023-02-22T03:09:38.694Z,100.00
2023-02-22T03:13:11.932Z,100.00
2023-02-22T03:16:21.341Z,100.00
2023-02-22T03:19:46.260Z,100.00
2023-02-22T03:22:58.151Z,100.00
2023-02-22T03:26:10.156Z,100.00
2023-02-22T03:29:16.285Z,100.00
2023-02-22T03:32:24.051Z,100.00
2023-02-22T03:35:31.752Z,100.00
2023-02-22T03:38:37.495Z,100.00
2023-02-22T03:41:40.997Z,100.00
2023-02-22T03:44:44.769Z,100.00
2023-02-22T03:47:56.298Z,100.00
2023-02-22T03:51:01.228Z,100.00
2023-02-22T03:54:05.181Z,100.00
2023-02-22T03:57:16.236Z,100.00
2023-02-22T04:00:23.166Z,100.00
2023-02-22T04:03:25.982Z,100.00
2023-02-22T04:06:29.626Z,100.00
2023-02-22T04:09:32.915Z,100.00
2023-02-22T04:12:37.043Z,100.00
2023-02-22T04:15:39.677Z,100.00
2023-02-22T04:18:42.608Z,100.00
2023-02-22T04:21:45.298Z,100.00
2023-02-22T04:24:49.183Z,100.00
2023-02-22T04:27:55.130Z,100.00
2023-02-22T04:30:58.527Z,100.00
2023-02-22T04:34:02.627Z,100.00
2023-02-22T04:37:05.411Z,100.00
2023-02-22T04:40:10.765Z,100.00
2023-02-22T04:43:13.536Z,100.00
2023-02-22T04:46:16.409Z,100.00
2023-02-22T04:49:19.198Z,100.00
2023-02-22T04:52:22.090Z,100.00
2023-02-22T04:55:24.908Z,100.00
2023-02-22T04:58:28.178Z,100.00
2023-02-22T05:01:35.092Z,100.00
2023-02-22T05:04:41.062Z,100.00
2023-02-22T05:07:43.874Z,100.00
2023-02-22T05:10:46.715Z,100.00
2023-02-22T05:13:49.488Z,100.00
2023-02-22T05:16:52.174Z,100.00
2023-02-22T05:19:55.015Z,100.00
2023-02-22T05:22:59.072Z,100.00
2023-02-22T05:26:01.824Z,100.00
2023-02-22T05:29:04.737Z,100.00
2023-02-22T05:32:08.033Z,100.00
2023-02-22T05:35:10.821Z,100.00
2023-02-22T05:38:15.300Z,100.00
2023-02-22T05:41:18.876Z,100.00
2023-02-22T05:44:21.929Z,100.00
2023-02-22T05:47:24.580Z,100.00
2023-02-22T05:50:27.442Z,100.00
2023-02-22T05:53:30.703Z,100.00
2023-02-22T05:56:33.716Z,100.00
2023-02-22T05:59:39.575Z,100.00
2023-02-22T06:02:42.377Z,100.00
2023-02-22T06:05:45.160Z,100.00
2023-02-22T06:08:48.037Z,100.00
2023-02-22T06:11:50.783Z,100.00
2023-02-22T06:14:53.590Z,100.00
2023-02-22T06:17:58.044Z,100.00
2023-02-22T06:21:03.563Z,100.00
2023-02-22T06:24:06.684Z,100.00
2023-02-22T06:27:09.376Z,100.00
2023-02-22T06:30:14.580Z,100.00
2023-02-22T06:33:17.612Z,100.00
2023-02-22T06:36:20.309Z,100.00
2023-02-22T06:39:24.013Z,100.00
2023-02-22T06:42:26.939Z,100.00
2023-02-22T06:45:29.732Z,100.00
2023-02-22T06:48:33.298Z,100.00
2023-02-22T06:51:37.383Z,100.00
2023-02-22T06:54:40.188Z,100.00
2023-02-22T06:57:43.658Z,100.00
2023-02-22T07:00:47.238Z,100.00
2023-02-22T07:03:50.545Z,100.00
2023-02-22T07:06:53.369Z,100.00
2023-02-22T07:09:56.062Z,100.00
2023-02-22T07:12:58.959Z,100.00
2023-02-22T07:16:01.674Z,100.00
2023-02-22T07:19:04.385Z,100.00
2023-02-22T07:22:07.185Z,100.00
2023-02-22T07:25:11.564Z,100.00
2023-02-22T07:28:14.258Z,100.00
2023-02-22T07:31:17.304Z,100.00
2023-02-22T07:34:20.206Z,100.00
2023-02-22T07:37:22.977Z,100.00
2023-02-22T07:40:27.491Z,100.00
2023-02-22T07:43:31.848Z,100.00
2023-02-22T07:46:34.605Z,100.00
2023-02-22T07:49:37.497Z,100.00
2023-02-22T07:52:40.677Z,100.00
2023-02-22T07:55:43.882Z,100.00
2023-02-22T07:58:46.624Z,100.00
2023-02-22T08:01:50.681Z,100.00
2023-02-22T08:04:53.681Z,100.00
2023-02-22T08:07:59.889Z,100.00
2023-02-22T08:11:02.943Z,100.00
2023-02-22T08:14:06.674Z,100.00
2023-02-22T08:17:09.811Z,100.00
2023-02-22T08:20:13.592Z,100.00
2023-02-22T08:23:18.234Z,100.00
2023-02-22T08:26:21.086Z,100.00
2023-02-22T08:29:24.027Z,99.89
2023-02-22T08:32:27.239Z,98.89
2023-02-22T08:35:31.953Z,98.44
2023-02-22T08:38:35.155Z,97.21
2023-02-22T08:41:37.962Z,96.10
2023-02-22T08:44:41.151Z,95.36
2023-02-22T08:47:44.823Z,95.13
2023-02-22T08:50:47.583Z,93.12
2023-02-22T08:53:50.484Z,93.37
2023-02-22T08:56:53.243Z,92.68
2023-02-22T08:59:56.687Z,90.49
2023-02-22T09:03:01.697Z,88.92
2023-02-22T09:06:05.489Z,87.29
2023-02-22T09:09:08.404Z,86.32
2023-02-22T09:12:11.922Z,85.24
2023-02-22T09:15:16.635Z,85.50
2023-02-22T09:18:21.334Z,83.57
2023-02-22T09:21:24.067Z,83.83
2023-02-22T09:24:27.486Z,83.06
2023-02-22T09:27:30.395Z,81.81
2023-02-22T09:30:35.748Z,82.01
2023-02-22T09:33:38.604Z,80.00
2023-02-22T09:36:42.298Z,78.63
2023-02-22T09:39:45.479Z,77.59
2023-02-22T09:43:04.427Z,76.50
2023-02-22T09:46:20.029Z,76.90
2023-02-22T09:49:38.312Z,77.09
2023-02-22T09:52:50.239Z,75.56
2023-02-22T09:55:53.451Z,75.09
2023-02-22T09:59:00.453Z,71.61
2023-02-22T10:02:25.042Z,72.59
2023-02-22T10:05:42.158Z,68.22
2023-02-22T10:08:46.247Z,69.02
2023-02-22T10:12:00.734Z,68.94
2023-02-22T10:15:28.723Z,69.11
2023-02-22T10:19:08.702Z,67.06
2023-02-22T10:22:40.352Z,67.89
2023-02-22T10:25:45.701Z,67.45
2023-02-22T10:29:10.042Z,66.70
2023-02-22T10:32:19.810Z,66.07
2023-02-22T10:35:30.039Z,63.36
2023-02-22T10:38:34.673Z,62.82
2023-02-22T10:41:50.383Z,61.85
2023-02-22T10:44:53.675Z,64.56
2023-02-22T10:48:18.671Z,63.14
2023-02-22T10:51:21.785Z,63.96
2023-02-22T10:55:01.010Z,64.45
2023-02-22T10:58:09.389Z,62.56
2023-02-22T11:01:36.763Z,62.63
2023-02-22T11:04:51.954Z,60.90
2023-02-22T11:08:22.827Z,59.72
2023-02-22T11:11:29.080Z,58.56
2023-02-22T11:14:32.169Z,59.32
2023-02-22T11:17:35.121Z,59.01
2023-02-22T11:20:39.901Z,59.97
2023-02-22T11:23:45.041Z,58.15
2023-02-22T11:26:50.889Z,57.37
2023-02-22T11:29:53.783Z,55.89
2023-02-22T11:33:23.934Z,56.92
2023-02-22T11:36:33.239Z,57.22
2023-02-22T11:39:38.735Z,55.59
2023-02-22T11:42:41.987Z,56.99
2023-02-22T11:46:02.194Z,58.60
2023-02-22T11:49:09.430Z,58.29
2023-02-22T11:52:31.885Z,59.69
2023-02-22T11:55:45.587Z,60.50
2023-02-22T11:59:08.318Z,61.24
2023-02-22T12:03:00.634Z,60.33
2023-02-22T12:06:12.731Z,60.13
2023-02-22T12:09:27.331Z,59.66
2023-02-22T12:13:20.925Z,60.03
2023-02-22T12:16:39.007Z,59.59
2023-02-22T12:19:43.867Z,59.48
2023-02-22T12:23:04.691Z,60.17
2023-02-22T12:26:16.806Z,59.95
2023-02-22T12:29:54.205Z,61.63
2023-02-22T12:33:06.174Z,62.23
2023-02-22T12:36:14.757Z,60.69
2023-02-22T12:39:52.886Z,60.85
2023-02-22T12:43:18.373Z,61.69
2023-02-22T12:47:00.858Z,60.90
2023-02-22T12:50:15.589Z,61.44
2023-02-22T12:53:39.069Z,59.84
2023-02-22T12:56:46.861Z,59.01
2023-02-22T12:59:52.881Z,59.32
2023-02-22T13:03:00.998Z,58.67
2023-02-22T13:06:55.742Z,60.91
2023-02-22T13:10:23.696Z,61.13
2023-02-22T13:13:43.493Z,62.00
2023-02-22T13:17:05.231Z,60.14
2023-02-22T13:20:14.740Z,61.30
2023-02-22T13:23:39.678Z,62.26
2023-02-22T13:26:54.761Z,61.24
2023-02-22T13:29:59.657Z,60.85
2023-02-22T13:33:15.745Z,60.76
2023-02-22T13:36:38.783Z,61.58
2023-02-22T13:40:31.994Z,63.07
2023-02-22T13:43:47.080Z,60.36
2023-02-22T13:47:16.628Z,60.00
2023-02-22T13:50:39.533Z,61.92
2023-02-22T13:53:56.214Z,60.86
2023-02-22T13:56:59.104Z,61.18
2023-02-22T14:00:21.137Z,62.35
2023-02-22T14:03:36.561Z,62.53
2023-02-22T14:06:41.885Z,62.00
2023-02-22T14:09:51.266Z,62.36
2023-02-22T14:12:53.976Z,62.75
2023-02-22T14:16:00.362Z,62.08
2023-02-22T14:19:18.255Z,62.64
2023-02-22T14:22:28.298Z,62.10
2023-02-22T14:25:43.038Z,62.59
2023-02-22T14:29:00.110Z,62.70
2023-02-22T14:32:08.608Z,63.33
2023-02-22T14:35:28.630Z,63.70
2023-02-22T14:38:36.725Z,62.77
2023-02-22T14:41:43.133Z,63.74
2023-02-22T14:44:54.346Z,63.74
2023-02-22T14:48:25.183Z,64.38
2023-02-22T14:51:43.092Z,65.31
2023-02-22T14:54:54.227Z,64.61
2023-02-22T14:58:06.736Z,64.84
2023-02-22T15:01:20.315Z,65.06
2023-02-22T15:04:25.845Z,65.02
2023-02-22T15:07:31.850Z,65.11
2023-02-22T15:10:43.739Z,65.80
2023-02-22T15:13:51.574Z,66.50
2023-02-22T15:16:57.257Z,66.71
2023-02-22T15:20:00.572Z,67.44
2023-02-22T15:23:04.994Z,68.40
2023-02-22T15:26:09.329Z,69.03
2023-02-22T15:29:23.448Z,69.37
2023-02-22T15:32:36.533Z,69.44
2023-02-22T15:35:40.787Z,69.66
2023-02-22T15:38:49.470Z,69.70
2023-02-22T15:42:19.616Z,69.67
2023-02-22T15:45:27.370Z,69.85
2023-02-22T15:48:32.029Z,69.92
2023-02-22T15:51:36.255Z,70.79
2023-02-22T15:54:45.210Z,70.68
2023-02-22T15:57:48.446Z,70.95
2023-02-22T16:01:01.805Z,71.41
2023-02-22T16:04:04.982Z,72.12
2023-02-22T16:07:21.481Z,72.37
2023-02-22T16:10:33.100Z,72.66
2023-02-22T16:13:36.602Z,72.86
2023-02-22T16:16:43.554Z,73.33
2023-02-22T16:19:46.971Z,73.59
2023-02-22T16:22:50.241Z,73.97
2023-02-22T16:26:16.952Z,74.14
2023-02-22T16:29:27.009Z,74.66
2023-02-22T16:32:30.745Z,74.96
2023-02-22T16:35:35.777Z,75.24
2023-02-22T16:38:39.730Z,76.01
2023-02-22T16:41:42.973Z,76.38
2023-02-22T16:44:46.145Z,76.24
2023-02-22T16:47:53.864Z,76.44
2023-02-22T16:51:01.924Z,76.80
2023-02-22T16:54:04.805Z,77.09
2023-02-22T16:57:07.688Z,76.96
2023-02-22T17:00:22.009Z,76.99
2023-02-22T17:03:26.752Z,77.29
2023-02-22T17:06:29.611Z,78.08
2023-02-22T17:09:33.197Z,78.43
2023-02-22T17:12:36.054Z,78.20
2023-02-22T17:15:39.003Z,78.36
2023-02-22T17:18:42.126Z,78.64
2023-02-22T17:21:45.218Z,79.22
2023-02-22T17:24:48.286Z,79.56
2023-02-22T17:27:51.331Z,80.08
2023-02-22T17:30:55.814Z,79.96
2023-02-22T17:34:06.724Z,79.82
2023-02-22T17:37:11.125Z,80.53
2023-02-22T17:40:17.363Z,80.87
2023-02-22T17:43:20.497Z,81.54
2023-02-22T17:46:25.388Z,82.28
2023-02-22T17:49:28.222Z,81.60
2023-02-22T17:52:30.975Z,81.44
2023-02-22T17:55:34.646Z,82.35
2023-02-22T17:58:37.832Z,83.30
2023-02-22T18:01:44.124Z,82.81
2023-02-22T18:04:47.169Z,83.17
2023-02-22T18:07:50.117Z,83.54
2023-02-22T18:11:02.200Z,83.46
2023-02-22T18:14:10.174Z,83.59
2023-02-22T18:17:12.958Z,84.50
2023-02-22T18:20:20.565Z,84.38
2023-02-22T18:23:28.015Z,84.95
2023-02-22T18:26:31.796Z,85.71
2023-02-22T18:29:34.968Z,86.14
2023-02-22T18:32:38.808Z,86.87
2023-02-22T18:35:47.799Z,87.88
2023-02-22T18:38:55.288Z,88.69
2023-02-22T18:41:58.556Z,87.60
2023-02-22T18:49:02.329Z,88.31
2023-02-22T18:52:12.256Z,89.28
2023-02-22T18:55:21.279Z,91.42
2023-02-22T18:58:24.332Z,90.44
2023-02-22T19:01:28.185Z,90.15
2023-02-22T19:04:31.324Z,91.17
2023-02-22T19:07:34.552Z,90.93
2023-02-22T19:10:38.934Z,90.83
2023-02-22T19:13:41.788Z,90.56
2023-02-22T19:16:48.361Z,91.53
2023-02-22T19:19:52.845Z,93.29
2023-02-22T19:23:00.666Z,93.34
2023-02-22T19:26:05.042Z,93.03
2023-02-22T19:29:09.787Z,94.07
2023-02-22T19:32:14.090Z,93.76
2023-02-22T19:35:26.437Z,94.04
2023-02-22T19:38:29.692Z,94.43
2023-02-22T19:41:37.495Z,94.67
2023-02-22T19:44:41.743Z,94.66
2023-02-22T19:47:46.643Z,95.99
2023-02-22T19:50:50.163Z,96.71
2023-02-22T19:53:54.567Z,97.51
2023-02-22T19:56:59.017Z,98.37
2023-02-22T20:00:11.004Z,98.82
2023-02-22T20:03:16.027Z,98.58
2023-02-22T20:06:19.109Z,98.06
2023-02-22T20:09:24.957Z,98.19
2023-02-22T20:12:27.991Z,99.19
2023-02-22T20:15:34.805Z,100.00
2023-02-22T20:18:38.020Z,99.42
2023-02-22T20:21:41.294Z,99.33
2023-02-22T20:24:44.496Z,98.98
2023-02-22T20:27:48.133Z,99.67
2023-02-22T20:30:51.955Z,99.70
2023-02-22T20:33:57.453Z,99.02
2023-02-22T20:37:01.588Z,100.00
2023-02-22T20:40:05.389Z,100.00
2023-02-22T20:43:09.453Z,100.00
2023-02-22T20:46:12.772Z,100.00
2023-02-22T20:49:18.310Z,100.00
2023-02-22T20:52:21.503Z,100.00
2023-02-22T20:55:25.115Z,100.00
2023-02-22T20:58:29.375Z,100.00
2023-02-22T21:01:32.894Z,100.00
2023-02-22T21:04:35.986Z,100.00
2023-02-22T21:07:39.639Z,100.00
2023-02-22T21:10:47.405Z,100.00
2023-02-22T21:13:51.210Z,100.00
2023-02-22T21:16:54.755Z,100.00
2023-02-22T21:19:58.738Z,100.00
2023-02-22T21:23:03.234Z,100.00
2023-02-22T21:26:07.390Z,100.00
2023-02-22T21:29:10.473Z,100.00
2023-02-22T21:32:14.051Z,100.00
2023-02-22T21:35:16.953Z,100.00
2023-02-22T21:38:21.066Z,100.00
2023-02-22T21:41:27.983Z,100.00
2023-02-22T21:44:31.154Z,100.00
2023-02-22T21:47:35.976Z,100.00
2023-02-22T21:50:39.229Z,100.00
2023-02-22T21:53:46.771Z,100.00
2023-02-22T21:56:50.013Z,100.00
2023-02-22T21:59:53.386Z,100.00
2023-02-22T22:03:11.938Z,100.00
2023-02-22T22:06:15.254Z,100.00
2023-02-22T22:09:19.282Z,100.00
2023-02-22T22:12:26.024Z,100.00
2023-02-22T22:15:37.036Z,100.00
2023-02-22T22:18:41.186Z,100.00
2023-02-22T22:21:46.795Z,100.00
2023-02-22T22:24:50.215Z,100.00
2023-02-22T22:27:52.979Z,100.00
2023-02-22T22:30:55.956Z,100.00
2023-02-22T22:33:58.870Z,100.00
2023-02-22T22:37:01.620Z,100.00
2023-02-22T22:40:05.761Z,100.00
2023-02-22T22:43:08.901Z,100.00
2023-02-22T22:46:13.409Z,100.00
2023-02-22T22:49:16.579Z,100.00
2023-02-22T22:52:19.363Z,100.00
2023-02-22T22:55:24.540Z,100.00
2023-02-22T22:58:27.306Z,100.00
2023-02-22T23:01:34.386Z,100.00
2023-02-22T23:04:38.267Z,100.00
2023-02-22T23:07:41.059Z,100.00
2023-02-22T23:10:43.942Z,100.00
2023-02-22T23:13:47.017Z,100.00
2023-02-22T23:16:51.364Z,100.00
2023-02-22T23:19:54.204Z,100.00
2023-02-22T23:22:58.106Z,100.00
2023-02-22T23:26:11.741Z,100.00
2023-02-22T23:29:15.042Z,100.00
2023-02-22T23:32:18.112Z,100.00
2023-02-22T23:35:21.011Z,100.00
2023-02-22T23:38:23.730Z,100.00
2023-02-22T23:41:28.863Z,100.00
2023-02-22T23:44:31.654Z,100.00
2023-02-22T23:47:34.294Z,100.00
2023-02-22T23:50:36.986Z,100.00
2023-02-22T23:53:46.097Z,100.00
2023-02-22T23:56:58.651Z,100.00
